createdAt,value
2023-02-13T00:00:55.553Z,24.20
2023-02-13T00:01:54.868Z,24.90
2023-02-13T00:02:54.898Z,23.40
2023-02-13T00:03:54.956Z,25.40
2023-02-13T00:04:54.825Z,22.60
2023-02-13T00:05:54.816Z,24.00
2023-02-13T00:06:54.840Z,24.70
2023-02-13T00:07:54.807Z,22.60
2023-02-13T00:08:54.822Z,22.80
2023-02-13T00:09:54.771Z,21.30
2023-02-13T00:10:55.165Z,22.40
2023-02-13T00:11:54.758Z,23.80
2023-02-13T00:12:54.738Z,22.80
2023-02-13T00:13:54.769Z,21.60
2023-02-13T00:14:54.717Z,23.50
2023-02-13T00:15:54.874Z,21.90
2023-02-13T00:16:54.716Z,20.70
2023-02-13T00:17:54.704Z,22.30
2023-02-13T00:18:54.686Z,21.20
2023-02-13T00:19:54.679Z,22.40
2023-02-13T00:20:54.984Z,23.40
2023-02-13T00:21:54.718Z,21.10
2023-02-13T00:22:54.627Z,24.90
2023-02-13T00:23:54.656Z,22.70
2023-02-13T00:24:54.619Z,20.60
2023-02-13T00:25:54.614Z,21.70
2023-02-13T00:26:54.610Z,20.60
2023-02-13T00:27:54.625Z,20.00
2023-02-13T00:28:54.565Z,20.20
2023-02-13T00:29:54.582Z,25.70
2023-02-13T00:30:54.716Z,26.70
2023-02-13T00:31:54.710Z,21.40
2023-02-13T00:32:54.530Z,22.10
2023-02-13T00:33:54.512Z,24.70
2023-02-13T00:34:54.498Z,23.50
2023-02-13T00:35:54.479Z,21.70
2023-02-13T00:36:54.486Z,21.50
2023-02-13T00:37:54.495Z,21.00
2023-02-13T00:38:55.430Z,19.30
2023-02-13T00:39:54.428Z,20.30
2023-02-13T00:40:54.473Z,19.40
2023-02-13T00:41:54.418Z,18.90
2023-02-13T00:42:54.445Z,19.80
2023-02-13T00:43:54.432Z,21.10
2023-02-13T00:44:54.397Z,21.10
2023-02-13T00:45:54.366Z,23.20
2023-02-13T00:46:54.373Z,21.30
2023-02-13T00:47:54.388Z,24.80
2023-02-13T00:48:54.330Z,24.50
2023-02-13T00:49:54.315Z,25.90
2023-02-13T00:50:54.303Z,26.50
2023-02-13T00:51:54.304Z,28.90
2023-02-13T00:52:54.341Z,28.30
2023-02-13T00:53:54.293Z,24.60
2023-02-13T00:54:54.262Z,28.90
2023-02-13T00:55:54.246Z,25.90
2023-02-13T00:56:54.320Z,23.20
2023-02-13T00:57:54.227Z,27.30
2023-02-13T00:58:54.255Z,25.00
2023-02-13T00:59:54.220Z,25.50
2023-02-13T01:00:54.193Z,27.60
2023-02-13T01:01:54.228Z,25.20
2023-02-13T01:02:54.204Z,27.90
2023-02-13T01:03:54.365Z,28.10
2023-02-13T01:04:54.185Z,32.40
2023-02-13T01:05:54.147Z,22.30
2023-02-13T01:06:54.172Z,26.50
2023-02-13T01:07:54.114Z,24.40
2023-02-13T01:08:54.115Z,23.20
2023-02-13T01:09:54.099Z,28.30
2023-02-13T01:10:54.130Z,27.30
2023-02-13T01:11:54.114Z,27.60
2023-02-13T01:12:54.079Z,24.10
2023-02-13T01:13:54.049Z,26.20
2023-02-13T01:14:54.086Z,28.40
2023-02-13T01:15:54.106Z,27.60
2023-02-13T01:16:54.052Z,25.60
2023-02-13T01:17:54.004Z,22.10
2023-02-13T01:18:53.990Z,31.90
2023-02-13T01:19:54.018Z,28.40
2023-02-13T01:20:53.969Z,25.50
2023-02-13T01:21:53.978Z,22.60
2023-02-13T01:22:54.003Z,20.30
2023-02-13T01:23:53.939Z,20.20
2023-02-13T01:24:53.951Z,20.60
2023-02-13T01:25:53.930Z,21.00
2023-02-13T01:26:53.920Z,23.60
2023-02-13T01:27:53.917Z,19.40
2023-02-13T01:28:53.885Z,19.70
2023-02-13T01:29:53.894Z,18.80
2023-02-13T01:30:53.957Z,20.60
2023-02-13T01:31:53.964Z,21.40
2023-02-13T01:32:53.884Z,20.10
2023-02-13T01:33:53.828Z,19.80
2023-02-13T01:34:53.869Z,18.90
2023-02-13T01:35:53.801Z,18.80
2023-02-13T01:36:53.836Z,20.10
2023-02-13T01:37:53.777Z,24.10
2023-02-13T01:38:53.788Z,21.70
2023-02-13T01:39:53.798Z,24.80
2023-02-13T01:40:53.799Z,19.40
2023-02-13T01:41:53.742Z,21.50
2023-02-13T01:42:53.743Z,18.30
2023-02-13T01:43:53.724Z,18.10
2023-02-13T01:44:53.746Z,20.70
2023-02-13T01:45:53.692Z,21.10
2023-02-13T01:46:53.751Z,19.10
2023-02-13T01:47:53.664Z,18.50
2023-02-13T01:48:53.687Z,18.30
2023-02-13T01:49:53.690Z,18.10
2023-02-13T01:50:53.657Z,18.10
2023-02-13T01:51:53.674Z,17.50
2023-02-13T01:52:53.605Z,19.30
2023-02-13T01:53:53.613Z,17.80
2023-02-13T01:54:53.646Z,17.10
2023-02-13T01:55:53.620Z,17.30
2023-02-13T01:56:53.653Z,18.00
2023-02-13T01:57:53.550Z,17.20
2023-02-13T01:58:53.545Z,17.90
2023-02-13T01:59:53.538Z,19.30
2023-02-13T02:00:53.561Z,17.20
2023-02-13T02:01:53.692Z,21.60
2023-02-13T02:02:53.546Z,21.20
2023-02-13T02:03:53.481Z,18.50
2023-02-13T02:04:53.470Z,18.70
2023-02-13T02:05:53.474Z,18.70
2023-02-13T02:06:53.486Z,18.30
2023-02-13T02:07:53.464Z,19.50
2023-02-13T02:08:53.469Z,18.00
2023-02-13T02:09:53.413Z,19.10
2023-02-13T02:10:53.413Z,18.50
2023-02-13T02:11:53.427Z,17.70
2023-02-13T02:12:53.420Z,17.20
2023-02-13T02:13:53.406Z,17.50
2023-02-13T02:14:53.360Z,16.80
2023-02-13T02:15:53.373Z,17.40
2023-02-13T02:16:53.348Z,17.00
2023-02-13T02:17:53.345Z,17.00
2023-02-13T02:18:53.364Z,18.00
2023-02-13T02:19:53.346Z,16.90
2023-02-13T02:20:53.341Z,16.90
2023-02-13T02:21:53.285Z,16.70
2023-02-13T02:22:53.311Z,16.90
2023-02-13T02:23:53.274Z,16.40
2023-02-13T02:24:53.279Z,16.40
2023-02-13T02:25:53.284Z,19.60
2023-02-13T02:26:53.233Z,19.40
2023-02-13T02:27:53.249Z,19.30
2023-02-13T02:28:53.227Z,19.20
2023-02-13T02:29:53.221Z,19.20
2023-02-13T02:30:53.312Z,17.80
2023-02-13T02:31:53.246Z,18.40
2023-02-13T02:32:53.162Z,19.00
2023-02-13T02:33:53.158Z,18.40
2023-02-13T02:34:53.169Z,17.00
2023-02-13T02:35:53.150Z,16.80
2023-02-13T02:36:53.161Z,16.60
2023-02-13T02:37:53.106Z,16.70
2023-02-13T02:38:53.096Z,17.80
2023-02-13T02:39:53.085Z,17.90
2023-02-13T02:40:53.108Z,17.20
2023-02-13T02:41:53.079Z,18.30
2023-02-13T02:42:53.099Z,17.10
2023-02-13T02:43:53.040Z,16.80
2023-02-13T02:44:53.031Z,16.30
2023-02-13T02:45:53.058Z,17.40
2023-02-13T02:46:53.056Z,18.90
2023-02-13T02:47:53.052Z,18.00
2023-02-13T02:48:52.980Z,19.20
2023-02-13T02:49:52.966Z,18.00
2023-02-13T02:50:53.000Z,18.60
2023-02-13T02:51:52.951Z,19.60
2023-02-13T02:52:52.959Z,19.60
2023-02-13T02:53:52.987Z,18.70
2023-02-13T02:54:52.939Z,18.20
2023-02-13T02:55:52.923Z,18.20
2023-02-13T02:56:52.887Z,19.80
2023-02-13T02:57:52.917Z,21.00
2023-02-13T02:58:52.896Z,19.80
2023-02-13T02:59:52.888Z,20.70
2023-02-13T03:00:52.954Z,21.10
2023-02-13T03:01:52.840Z,20.40
2023-02-13T03:02:52.877Z,18.10
2023-02-13T03:03:52.893Z,18.70
2023-02-13T03:04:52.801Z,18.20
2023-02-13T03:05:52.882Z,17.10
2023-02-13T03:06:52.805Z,18.40
2023-02-13T03:07:52.781Z,16.30
2023-02-13T03:08:52.793Z,15.70
2023-02-13T03:09:52.765Z,16.00
2023-02-13T03:10:52.736Z,16.30
2023-02-13T03:11:52.717Z,15.30
2023-02-13T03:12:52.724Z,16.10
2023-02-13T03:13:52.693Z,15.40
2023-02-13T03:14:52.727Z,15.40
2023-02-13T03:15:52.700Z,14.20
2023-02-13T03:16:52.701Z,14.10
2023-02-13T03:17:52.671Z,15.20
2023-02-13T03:18:52.669Z,15.70
2023-02-13T03:19:52.675Z,15.70
2023-02-13T03:20:52.633Z,15.60
2023-02-13T03:21:52.604Z,14.90
2023-02-13T03:22:52.627Z,18.20
2023-02-13T03:23:52.592Z,18.00
2023-02-13T03:24:52.613Z,19.40
2023-02-13T03:25:52.597Z,17.30
2023-02-13T03:26:52.570Z,17.60
2023-02-13T03:27:52.577Z,19.40
2023-02-13T03:28:52.526Z,20.70
2023-02-13T03:29:52.515Z,18.40
2023-02-13T03:30:52.601Z,16.90
2023-02-13T03:32:00.998Z,21.10
2023-02-13T03:32:52.506Z,21.70
2023-02-13T03:33:52.470Z,20.60
2023-02-13T03:34:52.463Z,20.70
2023-02-13T03:35:52.451Z,22.10
2023-02-13T03:36:52.473Z,23.60
2023-02-13T03:37:52.447Z,22.80
2023-02-13T03:38:52.475Z,22.70
2023-02-13T03:39:52.402Z,22.50
2023-02-13T03:40:52.391Z,22.50
2023-02-13T03:41:52.537Z,22.00
2023-02-13T03:42:52.384Z,19.50
2023-02-13T03:43:52.378Z,21.70
2023-02-13T03:44:52.352Z,21.10
2023-02-13T03:45:52.434Z,19.20
2023-02-13T03:46:52.324Z,21.40
2023-02-13T03:47:52.409Z,21.00
2023-02-13T03:48:52.318Z,20.20
2023-02-13T03:49:52.328Z,20.90
2023-02-13T03:50:52.280Z,20.40
2023-02-13T03:51:52.289Z,21.00
2023-02-13T03:52:52.351Z,19.50
2023-02-13T03:53:52.271Z,22.60
2023-02-13T03:54:52.305Z,20.20
2023-02-13T03:55:52.260Z,18.40
2023-02-13T03:56:52.211Z,22.80
2023-02-13T03:57:52.204Z,22.60
2023-02-13T03:58:52.227Z,23.20
2023-02-13T03:59:52.216Z,22.40
2023-02-13T04:00:52.209Z,25.30
2023-02-13T04:01:52.255Z,24.70
2023-02-13T04:02:52.166Z,23.60
2023-02-13T04:03:52.132Z,19.60
2023-02-13T04:04:52.158Z,24.20
2023-02-13T04:05:52.120Z,24.60
2023-02-13T04:06:52.125Z,24.10
2023-02-13T04:07:52.122Z,26.50
2023-02-13T04:08:52.118Z,23.40
2023-02-13T04:09:52.089Z,26.50
2023-02-13T04:10:52.091Z,26.90
2023-02-13T04:11:52.092Z,22.00
2023-02-13T04:12:52.042Z,26.10
2023-02-13T04:13:52.088Z,25.40
2023-02-13T04:14:52.010Z,26.40
2023-02-13T04:15:52.028Z,25.70
2023-02-13T04:16:52.020Z,21.10
2023-02-13T04:17:52.002Z,26.50
2023-02-13T04:18:51.994Z,24.60
2023-02-13T04:19:52.014Z,26.40
2023-02-13T04:20:51.989Z,23.60
2023-02-13T04:21:51.933Z,28.70
2023-02-13T04:22:52.066Z,29.70
2023-02-13T04:23:51.915Z,32.00
2023-02-13T04:24:51.899Z,29.50
2023-02-13T04:25:51.896Z,29.50
2023-02-13T04:26:51.901Z,25.40
2023-02-13T04:27:51.917Z,27.70
2023-02-13T04:28:51.857Z,29.60
2023-02-13T04:29:51.886Z,28.30
2023-02-13T04:30:52.014Z,22.40
2023-02-13T04:31:52.102Z,27.80
2023-02-13T04:32:51.869Z,27.00
2023-02-13T04:33:51.800Z,23.30
2023-02-13T04:34:51.838Z,27.70
2023-02-13T04:35:51.778Z,23.70
2023-02-13T04:36:51.902Z,28.20
2023-02-13T04:37:51.774Z,29.30
2023-02-13T04:38:51.747Z,22.50
2023-02-13T04:39:51.738Z,28.80
2023-02-13T04:40:51.756Z,25.10
2023-02-13T04:41:51.757Z,29.80
2023-02-13T04:42:51.719Z,29.30
2023-02-13T04:43:51.691Z,25.10
2023-02-13T04:44:51.702Z,21.70
2023-02-13T04:45:51.747Z,20.10
2023-02-13T04:46:51.672Z,25.80
2023-02-13T04:47:51.675Z,23.20
2023-02-13T04:48:51.633Z,20.60
2023-02-13T04:49:51.652Z,22.10
2023-02-13T04:50:51.632Z,19.40
2023-02-13T04:51:51.663Z,22.20
2023-02-13T04:52:51.610Z,24.40
2023-02-13T04:53:51.578Z,21.20
2023-02-13T04:54:51.570Z,21.30
2023-02-13T04:55:51.556Z,19.40
2023-02-13T04:56:51.582Z,22.30
2023-02-13T04:57:51.585Z,24.60
2023-02-13T04:58:51.546Z,19.80
2023-02-13T04:59:51.508Z,26.20
2023-02-13T05:00:51.523Z,22.20
2023-02-13T05:01:51.528Z,22.00
2023-02-13T05:02:51.497Z,22.90
2023-02-13T05:03:51.514Z,19.90
2023-02-13T05:04:51.549Z,23.80
2023-02-13T05:05:51.451Z,19.40
2023-02-13T05:06:51.449Z,20.30
2023-02-13T05:07:51.456Z,20.90
2023-02-13T05:08:51.430Z,27.10
2023-02-13T05:09:51.429Z,25.70
2023-02-13T05:10:51.388Z,25.50
2023-02-13T05:11:51.374Z,27.50
2023-02-13T05:12:51.430Z,22.50
2023-02-13T05:13:51.392Z,23.60
2023-02-13T05:14:51.384Z,23.70
2023-02-13T05:15:51.390Z,24.70
2023-02-13T05:16:51.358Z,23.90
2023-02-13T05:17:51.307Z,24.60
2023-02-13T05:18:51.334Z,19.80
2023-02-13T05:19:51.290Z,26.30
2023-02-13T05:20:51.308Z,20.70
2023-02-13T05:21:51.265Z,24.00
2023-02-13T05:22:51.295Z,26.60
2023-02-13T05:23:51.241Z,26.70
2023-02-13T05:24:51.243Z,27.20
2023-02-13T05:25:51.243Z,26.10
2023-02-13T05:26:51.234Z,25.30
2023-02-13T05:27:51.238Z,22.20
2023-02-13T05:28:51.192Z,22.80
2023-02-13T05:29:51.174Z,26.20
2023-02-13T05:30:51.216Z,21.20
2023-02-13T05:31:51.295Z,20.60
2023-02-13T05:32:51.170Z,20.70
2023-02-13T05:33:51.128Z,20.10
2023-02-13T05:34:51.141Z,20.20
2023-02-13T05:35:51.109Z,19.70
2023-02-13T05:36:51.238Z,21.50
2023-02-13T05:37:51.115Z,21.90
2023-02-13T05:38:51.077Z,22.50
2023-02-13T05:39:51.064Z,22.30
2023-02-13T05:40:51.052Z,22.30
2023-02-13T05:41:51.562Z,20.10
2023-02-13T05:42:51.078Z,20.60
2023-02-13T05:43:51.044Z,22.10
2023-02-13T05:44:51.171Z,23.90
2023-02-13T05:45:51.004Z,19.90
2023-02-13T05:46:51.009Z,23.60
2023-02-13T05:47:50.990Z,22.00
2023-02-13T05:48:50.995Z,19.30
2023-02-13T05:49:50.967Z,21.70
2023-02-13T05:50:50.974Z,23.60
2023-02-13T05:51:50.933Z,22.70
2023-02-13T05:52:50.957Z,23.60
2023-02-13T05:53:50.915Z,26.00
2023-02-13T05:54:50.982Z,24.50
2023-02-13T05:55:50.906Z,23.20
2023-02-13T05:56:50.932Z,23.70
2023-02-13T05:57:50.865Z,23.60
2023-02-13T05:58:50.852Z,21.60
2023-02-13T05:59:50.854Z,21.10
2023-02-13T06:00:50.895Z,21.30
2023-02-13T06:01:50.817Z,20.50
2023-02-13T06:02:50.877Z,23.70
2023-02-13T06:03:50.895Z,23.90
2023-02-13T06:04:50.784Z,23.00
2023-02-13T06:05:50.786Z,20.00
2023-02-13T06:06:50.797Z,21.10
2023-02-13T06:07:50.804Z,19.80
2023-02-13T06:08:50.743Z,20.90
2023-02-13T06:09:50.726Z,22.70
2023-02-13T06:10:50.746Z,22.00
2023-02-13T06:11:50.723Z,22.30
2023-02-13T06:12:50.748Z,24.00
2023-02-13T06:13:50.748Z,22.50
2023-02-13T06:14:50.669Z,22.80
2023-02-13T06:15:50.773Z,21.80
2023-02-13T06:16:50.655Z,21.20
2023-02-13T06:17:50.663Z,21.10
2023-02-13T06:18:50.650Z,18.00
2023-02-13T06:19:50.694Z,20.40
2023-02-13T06:20:50.624Z,20.10
2023-02-13T06:21:50.602Z,20.50
2023-02-13T06:22:50.632Z,18.70
2023-02-13T06:23:50.601Z,19.30
2023-02-13T06:24:50.607Z,20.40
2023-02-13T06:25:50.625Z,17.80
2023-02-13T06:26:50.559Z,18.50
2023-02-13T06:27:50.536Z,16.50
2023-02-13T06:28:50.533Z,17.70
2023-02-13T06:29:50.511Z,17.70
2023-02-13T06:30:50.669Z,19.80
2023-02-13T06:31:50.562Z,19.90
2023-02-13T06:32:50.479Z,18.90
2023-02-13T06:33:50.482Z,17.80
2023-02-13T06:34:50.492Z,20.00
2023-02-13T06:35:50.462Z,20.20
2023-02-13T06:36:50.467Z,20.50
2023-02-13T06:37:50.586Z,20.20
2023-02-13T06:38:50.409Z,17.80
2023-02-13T06:39:50.441Z,16.20
2023-02-13T06:40:50.398Z,15.60
2023-02-13T06:41:50.416Z,14.80
2023-02-13T06:42:50.423Z,16.40
2023-02-13T06:43:50.365Z,15.20
2023-02-13T06:44:50.348Z,15.60
2023-02-13T06:45:50.373Z,15.60
2023-02-13T06:46:50.403Z,15.50
2023-02-13T06:47:50.352Z,16.20
2023-02-13T06:48:50.292Z,17.20
2023-02-13T06:49:50.314Z,16.80
2023-02-13T06:50:50.307Z,15.70
2023-02-13T06:51:50.296Z,15.20
2023-02-13T06:52:50.289Z,15.90
2023-02-13T06:53:50.242Z,15.50
2023-02-13T06:54:50.249Z,16.60
2023-02-13T06:55:50.237Z,16.70
2023-02-13T06:56:50.220Z,16.00
2023-02-13T06:57:50.226Z,15.70
2023-02-13T06:58:50.198Z,15.10
2023-02-13T06:59:50.213Z,15.30
2023-02-13T07:00:50.198Z,16.10
2023-02-13T07:01:50.171Z,17.00
2023-02-13T07:02:50.227Z,16.60
2023-02-13T07:03:50.145Z,16.00
2023-02-13T07:04:50.166Z,15.40
2023-02-13T07:05:50.106Z,16.30
2023-02-13T07:06:50.139Z,15.80
2023-02-13T07:07:50.161Z,15.40
2023-02-13T07:08:50.084Z,15.70
2023-02-13T07:09:50.074Z,16.00
2023-02-13T07:10:50.049Z,16.10
2023-02-13T07:11:51.552Z,15.70
2023-02-13T07:13:03.647Z,14.80
2023-02-13T07:13:51.048Z,14.30
2023-02-13T07:14:50.044Z,14.90
2023-02-13T07:15:50.060Z,15.50
2023-02-13T07:16:49.985Z,14.20
2023-02-13T07:17:49.995Z,15.10
2023-02-13T07:18:49.963Z,15.50
2023-02-13T07:19:49.970Z,16.30
2023-02-13T07:20:49.987Z,15.60
2023-02-13T07:21:49.955Z,15.60
2023-02-13T07:22:49.968Z,14.80
2023-02-13T07:23:49.919Z,14.70
2023-02-13T07:24:49.905Z,14.00
2023-02-13T07:25:49.919Z,16.90
2023-02-13T07:26:49.884Z,16.70
2023-02-13T07:27:49.871Z,20.80
2023-02-13T07:28:52.926Z,20.10
2023-02-13T07:29:50.857Z,18.90
2023-02-13T07:30:49.887Z,19.00
2023-02-13T07:31:49.909Z,19.10
2023-02-13T07:32:49.833Z,18.60
2023-02-13T07:33:49.800Z,18.10
2023-02-13T07:35:01.342Z,18.00
2023-02-13T07:35:50.822Z,18.00
2023-02-13T07:36:49.808Z,16.80
2023-02-13T07:37:49.782Z,16.80
2023-02-13T07:38:49.784Z,17.30
2023-02-13T07:39:49.734Z,16.80
2023-02-13T07:40:49.755Z,17.50
2023-02-13T07:41:49.712Z,19.00
2023-02-13T07:42:49.727Z,17.30
2023-02-13T07:43:49.722Z,16.60
2023-02-13T07:44:49.678Z,17.60
2023-02-13T07:45:49.710Z,16.50
2023-02-13T07:46:49.699Z,15.90
2023-02-13T07:47:49.652Z,14.70
2023-02-13T07:48:49.657Z,14.60
2023-02-13T07:49:49.664Z,13.00
2023-02-13T07:50:49.613Z,12.70
2023-02-13T07:51:49.625Z,12.80
2023-02-13T07:52:49.599Z,12.70
2023-02-13T07:53:49.593Z,12.60
2023-02-13T07:54:49.608Z,13.60
2023-02-13T07:55:49.589Z,13.00
2023-02-13T07:56:49.545Z,13.60
2023-02-13T07:57:49.560Z,13.10
2023-02-13T07:58:49.533Z,14.10
2023-02-13T07:59:49.524Z,13.30
2023-02-13T08:00:49.527Z,14.10
2023-02-13T08:01:49.571Z,13.90
2023-02-13T08:02:49.533Z,14.50
2023-02-13T08:03:49.511Z,14.30
2023-02-13T08:04:49.472Z,18.40
2023-02-13T08:05:49.462Z,17.60
2023-02-13T08:06:49.466Z,16.70
2023-02-13T08:07:49.430Z,16.20
2023-02-13T08:08:49.460Z,15.10
2023-02-13T08:09:49.400Z,14.50
2023-02-13T08:10:49.460Z,14.80
2023-02-13T08:11:49.384Z,15.30
2023-02-13T08:12:49.418Z,14.60
2023-02-13T08:13:49.351Z,14.40
2023-02-13T08:14:49.339Z,14.00
2023-02-13T08:15:49.330Z,14.70
2023-02-13T08:16:49.485Z,14.10
2023-02-13T08:17:49.324Z,14.40
2023-02-13T08:18:49.343Z,13.80
2023-02-13T08:19:49.285Z,14.20
2023-02-13T08:20:49.270Z,14.10
2023-02-13T08:21:49.264Z,13.80
2023-02-13T08:22:49.284Z,14.00
2023-02-13T08:23:49.285Z,14.20
2023-02-13T08:24:49.261Z,13.90
2023-02-13T08:25:49.215Z,14.40
2023-02-13T08:26:49.257Z,13.80
2023-02-13T08:27:49.228Z,14.60
2023-02-13T08:28:49.188Z,14.70
2023-02-13T08:29:49.195Z,15.90
2023-02-13T08:30:49.232Z,18.30
2023-02-13T08:31:49.209Z,17.80
2023-02-13T08:32:54.183Z,17.80
2023-02-13T08:33:50.138Z,19.60
2023-02-13T08:34:49.126Z,17.90
2023-02-13T08:35:49.133Z,18.80
2023-02-13T08:36:49.090Z,19.50
2023-02-13T08:37:49.129Z,18.70
2023-02-13T08:38:49.072Z,17.70
2023-02-13T08:39:49.055Z,17.10
2023-02-13T08:40:49.065Z,16.70
2023-02-13T08:41:49.032Z,17.10
2023-02-13T08:42:49.043Z,16.20
2023-02-13T08:43:49.041Z,15.70
2023-02-13T08:44:49.029Z,15.10
2023-02-13T08:45:49.052Z,16.30
2023-02-13T08:46:48.991Z,16.60
2023-02-13T08:47:48.964Z,17.60
2023-02-13T08:48:48.953Z,17.60
2023-02-13T08:49:48.971Z,16.60
2023-02-13T08:50:48.950Z,17.30
2023-02-13T08:51:48.966Z,15.70
2023-02-13T08:52:48.935Z,16.40
2023-02-13T08:53:48.945Z,16.20
2023-02-13T08:54:48.886Z,16.00
2023-02-13T08:55:48.896Z,15.90
2023-02-13T08:56:48.878Z,15.20
2023-02-13T08:57:48.875Z,15.00
2023-02-13T08:58:48.898Z,15.00
2023-02-13T08:59:48.886Z,15.40
2023-02-13T09:00:48.935Z,15.50
2023-02-13T09:01:48.823Z,15.40
2023-02-13T09:02:48.889Z,15.00
2023-02-13T09:03:48.798Z,14.00
2023-02-13T09:04:48.824Z,14.60
2023-02-13T09:05:48.787Z,14.30
2023-02-13T09:06:48.754Z,15.40
2023-02-13T09:07:48.769Z,18.50
2023-02-13T09:08:48.783Z,16.20
2023-02-13T09:09:48.744Z,16.30
2023-02-13T09:10:48.745Z,16.80
2023-02-13T09:11:48.697Z,16.40
2023-02-13T09:12:48.687Z,16.40
2023-02-13T09:13:48.709Z,17.00
2023-02-13T09:14:48.707Z,17.10
2023-02-13T09:15:48.678Z,18.10
2023-02-13T09:16:48.740Z,18.20
2023-02-13T09:17:48.631Z,18.30
2023-02-13T09:18:48.683Z,17.70
2023-02-13T09:19:48.615Z,17.10
2023-02-13T09:20:48.626Z,17.40
2023-02-13T09:21:48.588Z,31.00
2023-02-13T09:22:48.578Z,29.70
2023-02-13T09:23:48.566Z,23.00
2023-02-13T09:24:48.577Z,19.20
2023-02-13T09:25:48.555Z,17.20
2023-02-13T09:26:48.585Z,17.20
2023-02-13T09:27:48.566Z,16.90
2023-02-13T09:28:48.683Z,17.20
2023-02-13T09:29:48.501Z,17.90
2023-02-13T09:30:48.560Z,18.70
2023-02-13T09:31:48.596Z,17.90
2023-02-13T09:32:48.536Z,17.30
2023-02-13T09:33:48.458Z,17.90
2023-02-13T09:34:48.444Z,17.40
2023-02-13T09:35:48.441Z,18.00
2023-02-13T09:36:48.427Z,19.10
2023-02-13T09:37:48.428Z,17.50
2023-02-13T09:38:48.471Z,18.20
2023-02-13T09:39:48.411Z,18.40
2023-02-13T09:40:48.377Z,17.50
2023-02-13T09:41:48.381Z,18.50
2023-02-13T09:42:48.386Z,18.10
2023-02-13T09:43:48.360Z,17.90
2023-02-13T09:44:48.332Z,19.10
2023-02-13T09:45:48.402Z,18.80
2023-02-13T09:46:48.404Z,18.80
2023-02-13T09:47:48.338Z,19.30
2023-02-13T09:48:48.308Z,18.90
2023-02-13T09:49:48.304Z,19.70
2023-02-13T09:50:48.265Z,18.70
2023-02-13T09:51:48.277Z,19.30
2023-02-13T09:52:48.250Z,20.30
2023-02-13T09:53:48.265Z,19.80
2023-02-13T09:54:48.228Z,19.60
2023-02-13T09:55:48.249Z,20.10
2023-02-13T09:56:48.196Z,20.40
2023-02-13T09:57:48.184Z,21.00
2023-02-13T09:58:48.214Z,21.00
2023-02-13T09:59:48.197Z,20.30
2023-02-13T10:00:50.608Z,20.30
2023-02-13T10:01:48.214Z,20.40
2023-02-13T10:02:48.151Z,21.30
2023-02-13T10:03:48.156Z,20.90
2023-02-13T10:04:48.163Z,22.00
2023-02-13T10:05:48.136Z,21.00
2023-02-13T10:06:48.100Z,20.30
2023-02-13T10:07:48.129Z,21.20
2023-02-13T10:08:48.072Z,22.80
2023-02-13T10:09:48.061Z,22.60
2023-02-13T10:10:48.057Z,22.20
2023-02-13T10:11:48.032Z,24.10
2023-02-13T10:12:48.018Z,22.50
2023-02-13T10:13:48.068Z,25.30
2023-02-13T10:14:47.994Z,25.40
2023-02-13T10:15:48.132Z,24.00
2023-02-13T10:16:48.005Z,26.10
2023-02-13T10:17:47.986Z,26.30
2023-02-13T10:18:47.978Z,24.20
2023-02-13T10:19:47.961Z,25.20
2023-02-13T10:20:47.965Z,27.40
2023-02-13T10:21:47.925Z,23.30
2023-02-13T10:22:47.925Z,24.40
2023-02-13T10:23:47.914Z,23.30
2023-02-13T10:24:47.891Z,22.70
2023-02-13T10:25:47.888Z,22.30
2023-02-13T10:26:47.903Z,20.70
2023-02-13T10:27:47.850Z,21.20
2023-02-13T10:28:47.850Z,21.40
2023-02-13T10:29:47.823Z,22.40
2023-02-13T10:30:47.993Z,22.60
2023-02-13T10:31:48.034Z,22.60
2023-02-13T10:32:47.813Z,22.20
2023-02-13T10:33:47.788Z,22.80
2023-02-13T10:34:47.824Z,22.80
2023-02-13T10:35:47.795Z,23.00
2023-02-13T10:36:47.772Z,23.10
2023-02-13T10:37:47.754Z,23.40
2023-02-13T10:38:47.748Z,22.90
2023-02-13T10:39:47.727Z,22.70
2023-02-13T10:40:47.734Z,23.40
2023-02-13T10:41:47.692Z,23.90
2023-02-13T10:42:47.689Z,24.20
2023-02-13T10:43:47.704Z,24.30
2023-02-13T10:44:47.670Z,23.70
2023-02-13T10:45:47.675Z,23.40
2023-02-13T10:46:47.782Z,23.80
2023-02-13T10:47:47.622Z,23.40
2023-02-13T10:48:47.618Z,22.40
2023-02-13T10:49:47.634Z,23.30
2023-02-13T10:50:47.618Z,22.90
2023-02-13T10:51:47.635Z,22.60
2023-02-13T10:52:47.614Z,23.50
2023-02-13T10:53:47.556Z,23.10
2023-02-13T10:54:47.557Z,23.50
2023-02-13T10:55:47.562Z,22.90
2023-02-13T10:56:47.574Z,23.10
2023-02-13T10:57:47.527Z,23.00
2023-02-13T10:58:47.516Z,22.80
2023-02-13T10:59:47.487Z,22.30
2023-02-13T11:00:47.494Z,22.10
2023-02-13T11:01:47.582Z,22.60
2023-02-13T11:02:47.509Z,22.00
2023-02-13T11:03:47.445Z,22.30
2023-02-13T11:04:47.442Z,21.30
2023-02-13T11:05:47.418Z,20.40
2023-02-13T11:06:47.448Z,21.70
2023-02-13T11:07:47.496Z,21.10
2023-02-13T11:08:47.437Z,20.70
2023-02-13T11:09:47.375Z,20.50
2023-02-13T11:10:47.371Z,20.90
2023-02-13T11:11:47.417Z,21.20
2023-02-13T11:12:47.375Z,21.20
2023-02-13T11:13:47.376Z,20.90
2023-02-13T11:14:47.384Z,21.90
2023-02-13T11:15:47.333Z,21.80
2023-02-13T11:16:47.293Z,22.60
2023-02-13T11:17:47.325Z,21.90
2023-02-13T11:18:47.272Z,21.60
2023-02-13T11:19:47.274Z,22.60
2023-02-13T11:20:47.283Z,18.90
2023-02-13T11:21:47.237Z,17.50
2023-02-13T11:22:47.276Z,17.60
2023-02-13T11:23:47.233Z,17.10
2023-02-13T11:24:47.203Z,16.80
2023-02-13T11:25:47.196Z,16.20
2023-02-13T11:26:47.239Z,16.40
2023-02-13T11:27:47.168Z,16.40
2023-02-13T11:28:47.303Z,16.50
2023-02-13T11:29:47.170Z,15.80
2023-02-13T11:30:47.234Z,16.40
2023-02-13T11:31:47.249Z,19.20
2023-02-13T11:32:47.200Z,18.20
2023-02-13T11:33:47.116Z,17.70
2023-02-13T11:34:47.104Z,16.00
2023-02-13T11:35:47.076Z,16.00
2023-02-13T11:36:47.082Z,16.90
2023-02-13T11:37:47.054Z,18.00
2023-02-13T11:38:47.123Z,17.70
2023-02-13T11:39:47.033Z,18.20
2023-02-13T11:40:47.104Z,18.50
2023-02-13T11:41:47.021Z,19.00
2023-02-13T11:42:47.007Z,18.90
2023-02-13T11:43:46.991Z,18.10
2023-02-13T11:44:47.044Z,19.30
2023-02-13T11:45:46.970Z,18.60
2023-02-13T11:46:47.043Z,18.30
2023-02-13T11:47:46.953Z,19.30
2023-02-13T11:48:46.946Z,18.80
2023-02-13T11:49:46.922Z,18.90
2023-02-13T11:50:46.966Z,18.80
2023-02-13T11:51:46.940Z,18.60
2023-02-13T11:52:46.925Z,18.10
2023-02-13T11:53:46.899Z,18.80
2023-02-13T11:54:46.907Z,18.30
2023-02-13T11:55:46.855Z,19.00
2023-02-13T11:57:03.082Z,18.20
2023-02-13T11:57:47.872Z,18.50
2023-02-13T11:58:46.894Z,18.50
2023-02-13T11:59:46.820Z,18.60
2023-02-13T12:00:46.838Z,18.40
2023-02-13T12:01:46.792Z,20.00
2023-02-13T12:02:46.969Z,19.30
2023-02-13T12:03:46.837Z,19.30
2023-02-13T12:04:46.800Z,19.70
2023-02-13T12:05:46.771Z,19.90
2023-02-13T12:06:46.741Z,19.30
2023-02-13T12:07:46.727Z,19.90
2023-02-13T12:08:46.726Z,20.80
2023-02-13T12:09:46.759Z,20.50
2023-02-13T12:10:46.726Z,21.50
2023-02-13T12:11:46.712Z,21.90
2023-02-13T12:12:46.712Z,22.00
2023-02-13T12:13:46.659Z,21.50
2023-02-13T12:14:47.082Z,21.00
2023-02-13T12:15:46.653Z,20.80
2023-02-13T12:16:46.694Z,21.60
2023-02-13T12:17:46.621Z,22.20
2023-02-13T12:18:46.649Z,21.20
2023-02-13T12:19:46.599Z,22.50
2023-02-13T12:20:46.606Z,22.10
2023-02-13T12:21:46.619Z,22.00
2023-02-13T12:22:46.573Z,22.80
2023-02-13T12:23:46.589Z,24.10
2023-02-13T12:24:46.542Z,22.80
2023-02-13T12:25:46.547Z,23.30
2023-02-13T12:26:46.554Z,22.70
2023-02-13T12:27:46.554Z,24.10
2023-02-13T12:28:46.509Z,26.40
2023-02-13T12:29:46.517Z,25.90
2023-02-13T12:30:46.528Z,24.20
2023-02-13T12:31:46.509Z,23.60
2023-02-13T12:32:46.447Z,24.00
2023-02-13T12:33:46.449Z,23.80
2023-02-13T12:34:46.458Z,24.80
2023-02-13T12:35:46.470Z,24.90
2023-02-13T12:36:46.436Z,25.10
2023-02-13T12:37:46.398Z,24.90
2023-02-13T12:38:46.379Z,25.30
2023-02-13T12:39:46.388Z,24.80
2023-02-13T12:40:46.365Z,25.70
2023-02-13T12:41:46.386Z,25.00
2023-02-13T12:42:46.367Z,25.50
2023-02-13T12:43:46.358Z,25.80
2023-02-13T12:44:46.348Z,25.60
2023-02-13T12:45:46.354Z,24.20
2023-02-13T12:46:46.330Z,24.90
2023-02-13T12:47:46.339Z,24.80
2023-02-13T12:48:46.331Z,24.10
2023-02-13T12:49:46.281Z,24.00
2023-02-13T12:50:46.256Z,23.00
2023-02-13T12:51:46.255Z,24.50
2023-02-13T12:52:46.220Z,24.00